sensor_id;sensor_type;location;lat;lon;timestamp;P1;durP1;ratioP1;P2;durP2;ratioP2
23159;SDS011;11748;50.844;4.396;2023-02-28T00:01:16;10.23;;;5.75;;
23159;SDS011;11748;50.844;4.396;2023-02-28T00:03:42;10.90;;;5.82;;
23159;SDS011;11748;50.844;4.396;2023-02-28T00:06:08;10.63;;;5.90;;
23159;SDS011;11748;50.844;4.396;2023-02-28T00:08:34;14.57;;;7.18;;
23159;SDS011;11748;50.844;4.396;2023-02-28T00:11:11;34.28;;;11.93;;
23159;SDS011;11748;50.844;4.396;2023-02-28T00:13:39;14.25;;;6.60;;
23159;SDS011;11748;50.844;4.396;2023-02-28T00:16:08;14.60;;;6.72;;
23159;SDS011;11748;50.844;4.396;2023-02-28T00:18:36;9.88;;;6.00;;
23159;SDS011;11748;50.844;4.396;2023-02-28T00:21:03;11.10;;;5.65;;
23159;SDS011;11748;50.844;4.396;2023-02-28T00:23:29;8.85;;;5.30;;
23159;SDS011;11748;50.844;4.396;2023-02-28T00:25:55;6.03;;;4.90;;
23159;SDS011;11748;50.844;4.396;2023-02-28T00:28:21;8.98;;;5.72;;
23159;SDS011;11748;50.844;4.396;2023-02-28T00:30:48;6.50;;;4.88;;
23159;SDS011;11748;50.844;4.396;2023-02-28T00:33:13;12.73;;;6.18;;
23159;SDS011;11748;50.844;4.396;2023-02-28T00:35:39;15.52;;;10.20;;
23159;SDS011;11748;50.844;4.396;2023-02-28T00:38:05;22.17;;;13.15;;
23159;SDS011;11748;50.844;4.396;2023-02-28T00:40:31;11.25;;;7.38;;
23159;SDS011;11748;50.844;4.396;2023-02-28T00:42:57;10.60;;;7.35;;
23159;SDS011;11748;50.844;4.396;2023-02-28T00:45:22;12.90;;;7.32;;
23159;SDS011;11748;50.844;4.396;2023-02-28T00:47:48;8.90;;;5.95;;
23159;SDS011;11748;50.844;4.396;2023-02-28T00:50:23;8.20;;;6.22;;
23159;SDS011;11748;50.844;4.396;2023-02-28T00:55:15;8.13;;;5.13;;
23159;SDS011;11748;50.844;4.396;2023-02-28T00:57:41;7.63;;;5.57;;
23159;SDS011;11748;50.844;4.396;2023-02-28T01:00:07;10.80;;;6.70;;
23159;SDS011;11748;50.844;4.396;2023-02-28T01:02:34;11.20;;;7.20;;
23159;SDS011;11748;50.844;4.396;2023-02-28T01:04:59;8.52;;;5.65;;
23159;SDS011;11748;50.844;4.396;2023-02-28T01:07:25;9.20;;;5.57;;
23159;SDS011;11748;50.844;4.396;2023-02-28T01:09:51;8.50;;;5.47;;
23159;SDS011;11748;50.844;4.396;2023-02-28T01:12:16;7.25;;;5.90;;
23159;SDS011;11748;50.844;4.396;2023-02-28T01:14:42;8.35;;;5.32;;
23159;SDS011;11748;50.844;4.396;2023-02-28T01:17:08;10.93;;;6.35;;
23159;SDS011;11748;50.844;4.396;2023-02-28T01:19:34;7.57;;;6.25;;
23159;SDS011;11748;50.844;4.396;2023-02-28T01:22:03;10.40;;;6.75;;
23159;SDS011;11748;50.844;4.396;2023-02-28T01:24:30;9.35;;;6.78;;
23159;SDS011;11748;50.844;4.396;2023-02-28T01:26:56;12.35;;;7.20;;
23159;SDS011;11748;50.844;4.396;2023-02-28T01:29:22;11.77;;;8.23;;
23159;SDS011;11748;50.844;4.396;2023-02-28T01:31:48;12.15;;;6.70;;
23159;SDS011;11748;50.844;4.396;2023-02-28T01:34:13;12.05;;;6.68;;
23159;SDS011;11748;50.844;4.396;2023-02-28T01:36:39;10.57;;;6.32;;
23159;SDS011;11748;50.844;4.396;2023-02-28T01:39:05;9.68;;;6.28;;
23159;SDS011;11748;50.844;4.396;2023-02-28T01:41:31;8.38;;;5.60;;
23159;SDS011;11748;50.844;4.396;2023-02-28T01:46:24;11.45;;;5.72;;
23159;SDS011;11748;50.844;4.396;2023-02-28T01:51:17;7.88;;;5.45;;
23159;SDS011;11748;50.844;4.396;2023-02-28T01:53:49;8.85;;;6.32;;
23159;SDS011;11748;50.844;4.396;2023-02-28T01:56:20;8.93;;;5.43;;
23159;SDS011;11748;50.844;4.396;2023-02-28T01:58:52;8.15;;;6.10;;
23159;SDS011;11748;50.844;4.396;2023-02-28T02:01:20;9.55;;;6.30;;
23159;SDS011;11748;50.844;4.396;2023-02-28T02:03:48;11.00;;;6.45;;
23159;SDS011;11748;50.844;4.396;2023-02-28T02:06:31;10.80;;;7.43;;
23159;SDS011;11748;50.844;4.396;2023-02-28T02:09:09;9.77;;;6.57;;
23159;SDS011;11748;50.844;4.396;2023-02-28T02:11:35;7.20;;;5.47;;
23159;SDS011;11748;50.844;4.396;2023-02-28T02:39:02;9.52;;;6.60;;
23159;SDS011;11748;50.844;4.396;2023-02-28T02:41:52;11.32;;;7.43;;
23159;SDS011;11748;50.844;4.396;2023-02-28T02:44:33;12.30;;;7.22;;
23159;SDS011;11748;50.844;4.396;2023-02-28T02:47:17;8.88;;;6.95;;
23159;SDS011;11748;50.844;4.396;2023-02-28T02:49:47;11.73;;;8.05;;
23159;SDS011;11748;50.844;4.396;2023-02-28T02:52:16;12.70;;;8.07;;
23159;SDS011;11748;50.844;4.396;2023-02-28T02:54:47;9.43;;;7.43;;
23159;SDS011;11748;50.844;4.396;2023-02-28T02:57:17;13.73;;;7.60;;
23159;SDS011;11748;50.844;4.396;2023-02-28T02:59:56;11.93;;;7.22;;
23159;SDS011;11748;50.844;4.396;2023-02-28T03:02:23;12.98;;;8.10;;
23159;SDS011;11748;50.844;4.396;2023-02-28T03:04:57;10.35;;;7.55;;
23159;SDS011;11748;50.844;4.396;2023-02-28T03:09:56;13.43;;;7.70;;
23159;SDS011;11748;50.844;4.396;2023-02-28T03:12:23;11.32;;;7.90;;
23159;SDS011;11748;50.844;4.396;2023-02-28T03:15:09;9.82;;;8.00;;
23159;SDS011;11748;50.844;4.396;2023-02-28T03:18:05;15.88;;;7.72;;
23159;SDS011;11748;50.844;4.396;2023-02-28T03:23:21;12.27;;;7.72;;
23159;SDS011;11748;50.844;4.396;2023-02-28T03:26:14;10.25;;;7.63;;
23159;SDS011;11748;50.844;4.396;2023-02-28T03:31:39;11.98;;;8.23;;
23159;SDS011;11748;50.844;4.396;2023-02-28T03:34:29;13.13;;;8.10;;
23159;SDS011;11748;50.844;4.396;2023-02-28T03:36:59;12.75;;;8.68;;
23159;SDS011;11748;50.844;4.396;2023-02-28T03:39:35;13.80;;;8.50;;
23159;SDS011;11748;50.844;4.396;2023-02-28T03:44:41;12.40;;;8.90;;
23159;SDS011;11748;50.844;4.396;2023-02-28T03:47:12;11.65;;;8.80;;
23159;SDS011;11748;50.844;4.396;2023-02-28T03:50:03;11.30;;;8.82;;
23159;SDS011;11748;50.844;4.396;2023-02-28T03:55:16;12.50;;;8.48;;
23159;SDS011;11748;50.844;4.396;2023-02-28T04:00:36;13.45;;;8.43;;
23159;SDS011;11748;50.844;4.396;2023-02-28T04:03:05;12.63;;;8.57;;
23159;SDS011;11748;50.844;4.396;2023-02-28T04:05:31;12.73;;;9.30;;
23159;SDS011;11748;50.844;4.396;2023-02-28T04:08:05;12.27;;;9.18;;
23159;SDS011;11748;50.844;4.396;2023-02-28T04:10:32;14.63;;;9.48;;
23159;SDS011;11748;50.844;4.396;2023-02-28T04:12:58;11.57;;;8.57;;
23159;SDS011;11748;50.844;4.396;2023-02-28T04:15:24;12.48;;;8.82;;
23159;SDS011;11748;50.844;4.396;2023-02-28T04:17:52;12.15;;;8.75;;
23159;SDS011;11748;50.844;4.396;2023-02-28T04:20:18;15.00;;;10.25;;
23159;SDS011;11748;50.844;4.396;2023-02-28T04:22:44;13.02;;;9.80;;
23159;SDS011;11748;50.844;4.396;2023-02-28T04:25:09;13.77;;;9.20;;
23159;SDS011;11748;50.844;4.396;2023-02-28T04:27:35;13.55;;;9.00;;
23159;SDS011;11748;50.844;4.396;2023-02-28T04:30:02;11.93;;;9.65;;
23159;SDS011;11748;50.844;4.396;2023-02-28T04:32:28;13.23;;;9.55;;
23159;SDS011;11748;50.844;4.396;2023-02-28T04:34:54;12.38;;;9.18;;
23159;SDS011;11748;50.844;4.396;2023-02-28T04:37:19;12.23;;;9.50;;
23159;SDS011;11748;50.844;4.396;2023-02-28T04:39:45;12.60;;;9.77;;
23159;SDS011;11748;50.844;4.396;2023-02-28T04:42:11;12.13;;;9.30;;
23159;SDS011;11748;50.844;4.396;2023-02-28T04:44:37;14.32;;;9.60;;
23159;SDS011;11748;50.844;4.396;2023-02-28T04:47:03;14.73;;;10.40;;
23159;SDS011;11748;50.844;4.396;2023-02-28T04:49:28;15.05;;;9.93;;
23159;SDS011;11748;50.844;4.396;2023-02-28T04:51:54;16.45;;;10.05;;
23159;SDS011;11748;50.844;4.396;2023-02-28T04:54:20;14.13;;;9.93;;
23159;SDS011;11748;50.844;4.396;2023-02-28T04:56:46;13.88;;;9.90;;
23159;SDS011;11748;50.844;4.396;2023-02-28T04:59:14;12.93;;;9.95;;
23159;SDS011;11748;50.844;4.396;2023-02-28T05:01:40;16.42;;;10.18;;
23159;SDS011;11748;50.844;4.396;2023-02-28T05:04:10;16.60;;;9.85;;
23159;SDS011;11748;50.844;4.396;2023-02-28T05:06:35;14.15;;;9.77;;
23159;SDS011;11748;50.844;4.396;2023-02-28T05:09:01;12.55;;;9.85;;
23159;SDS011;11748;50.844;4.396;2023-02-28T05:11:28;12.50;;;9.75;;
23159;SDS011;11748;50.844;4.396;2023-02-28T05:13:59;15.95;;;10.15;;
23159;SDS011;11748;50.844;4.396;2023-02-28T05:16:36;19.65;;;10.45;;
23159;SDS011;11748;50.844;4.396;2023-02-28T05:19:01;13.13;;;9.73;;
23159;SDS011;11748;50.844;4.396;2023-02-28T05:21:29;14.00;;;9.18;;
23159;SDS011;11748;50.844;4.396;2023-02-28T05:23:57;13.00;;;9.20;;
23159;SDS011;11748;50.844;4.396;2023-02-28T05:26:24;12.60;;;9.10;;
23159;SDS011;11748;50.844;4.396;2023-02-28T05:28:51;16.42;;;9.55;;
23159;SDS011;11748;50.844;4.396;2023-02-28T05:31:16;15.65;;;10.27;;
23159;SDS011;11748;50.844;4.396;2023-02-28T05:33:42;13.38;;;10.00;;
23159;SDS011;11748;50.844;4.396;2023-02-28T05:36:08;13.30;;;9.05;;
23159;SDS011;11748;50.844;4.396;2023-02-28T05:38:34;13.75;;;9.75;;
23159;SDS011;11748;50.844;4.396;2023-02-28T05:40:59;15.55;;;9.70;;
23159;SDS011;11748;50.844;4.396;2023-02-28T05:43:25;15.30;;;9.82;;
23159;SDS011;11748;50.844;4.396;2023-02-28T05:45:51;16.33;;;10.25;;
23159;SDS011;11748;50.844;4.396;2023-02-28T05:48:16;18.67;;;9.57;;
23159;SDS011;11748;50.844;4.396;2023-02-28T05:50:43;15.63;;;10.38;;
23159;SDS011;11748;50.844;4.396;2023-02-28T05:53:12;16.27;;;9.68;;
23159;SDS011;11748;50.844;4.396;2023-02-28T05:55:37;15.13;;;9.70;;
23159;SDS011;11748;50.844;4.396;2023-02-28T05:58:03;13.63;;;9.27;;
23159;SDS011;11748;50.844;4.396;2023-02-28T06:00:29;16.27;;;9.48;;
23159;SDS011;11748;50.844;4.396;2023-02-28T06:02:55;14.05;;;9.48;;
23159;SDS011;11748;50.844;4.396;2023-02-28T06:05:26;13.93;;;9.10;;
23159;SDS011;11748;50.844;4.396;2023-02-28T06:07:53;12.70;;;9.32;;
23159;SDS011;11748;50.844;4.396;2023-02-28T06:10:19;13.82;;;8.60;;
23159;SDS011;11748;50.844;4.396;2023-02-28T06:12:45;11.85;;;9.23;;
23159;SDS011;11748;50.844;4.396;2023-02-28T06:15:12;12.70;;;9.32;;
23159;SDS011;11748;50.844;4.396;2023-02-28T06:17:39;13.27;;;9.10;;
23159;SDS011;11748;50.844;4.396;2023-02-28T06:20:05;13.48;;;8.45;;
23159;SDS011;11748;50.844;4.396;2023-02-28T06:22:32;15.23;;;9.63;;
23159;SDS011;11748;50.844;4.396;2023-02-28T06:24:58;13.82;;;9.55;;
23159;SDS011;11748;50.844;4.396;2023-02-28T06:27:24;14.75;;;9.98;;
23159;SDS011;11748;50.844;4.396;2023-02-28T06:29:53;12.15;;;9.27;;
23159;SDS011;11748;50.844;4.396;2023-02-28T06:32:20;16.00;;;9.30;;
23159;SDS011;11748;50.844;4.396;2023-02-28T06:34:46;13.10;;;9.70;;
23159;SDS011;11748;50.844;4.396;2023-02-28T06:37:12;15.35;;;9.10;;
23159;SDS011;11748;50.844;4.396;2023-02-28T06:39:38;10.80;;;8.45;;
23159;SDS011;11748;50.844;4.396;2023-02-28T06:42:04;16.02;;;7.88;;
23159;SDS011;11748;50.844;4.396;2023-02-28T06:44:30;13.32;;;8.75;;
23159;SDS011;11748;50.844;4.396;2023-02-28T06:47:01;13.77;;;9.15;;
23159;SDS011;11748;50.844;4.396;2023-02-28T06:49:31;15.35;;;9.68;;
23159;SDS011;11748;50.844;4.396;2023-02-28T06:51:58;14.77;;;8.93;;
23159;SDS011;11748;50.844;4.396;2023-02-28T06:54:23;13.77;;;8.35;;
23159;SDS011;11748;50.844;4.396;2023-02-28T06:56:49;15.57;;;8.80;;
23159;SDS011;11748;50.844;4.396;2023-02-28T06:59:15;15.70;;;9.18;;
23159;SDS011;11748;50.844;4.396;2023-02-28T07:01:42;12.35;;;8.88;;
23159;SDS011;11748;50.844;4.396;2023-02-28T07:04:07;12.80;;;9.70;;
23159;SDS011;11748;50.844;4.396;2023-02-28T07:06:33;13.82;;;9.02;;
23159;SDS011;11748;50.844;4.396;2023-02-28T07:08:59;18.00;;;9.57;;
23159;SDS011;11748;50.844;4.396;2023-02-28T07:11:26;17.88;;;8.82;;
23159;SDS011;11748;50.844;4.396;2023-02-28T07:13:53;14.90;;;8.93;;
23159;SDS011;11748;50.844;4.396;2023-02-28T07:16:20;12.27;;;8.57;;
23159;SDS011;11748;50.844;4.396;2023-02-28T07:18:47;12.82;;;7.80;;
23159;SDS011;11748;50.844;4.396;2023-02-28T07:21:13;12.30;;;8.40;;
23159;SDS011;11748;50.844;4.396;2023-02-28T07:23:39;12.50;;;8.10;;
23159;SDS011;11748;50.844;4.396;2023-02-28T07:26:05;12.50;;;8.35;;
23159;SDS011;11748;50.844;4.396;2023-02-28T07:28:32;12.27;;;7.35;;
23159;SDS011;11748;50.844;4.396;2023-02-28T07:31:02;11.60;;;8.02;;
23159;SDS011;11748;50.844;4.396;2023-02-28T07:33:30;14.57;;;8.90;;
23159;SDS011;11748;50.844;4.396;2023-02-28T07:36:05;13.27;;;8.00;;
23159;SDS011;11748;50.844;4.396;2023-02-28T07:38:34;15.02;;;8.40;;
23159;SDS011;11748;50.844;4.396;2023-02-28T07:41:01;11.95;;;8.18;;
23159;SDS011;11748;50.844;4.396;2023-02-28T07:43:31;11.95;;;8.35;;
23159;SDS011;11748;50.844;4.396;2023-02-28T07:46:07;11.32;;;7.60;;
23159;SDS011;11748;50.844;4.396;2023-02-28T07:48:35;13.95;;;7.47;;
23159;SDS011;11748;50.844;4.396;2023-02-28T07:51:01;10.93;;;7.13;;
23159;SDS011;11748;50.844;4.396;2023-02-28T07:53:27;17.17;;;7.65;;
23159;SDS011;11748;50.844;4.396;2023-02-28T07:55:57;12.05;;;6.88;;
23159;SDS011;11748;50.844;4.396;2023-02-28T07:58:24;11.52;;;6.43;;
23159;SDS011;11748;50.844;4.396;2023-02-28T08:00:50;10.63;;;6.90;;
23159;SDS011;11748;50.844;4.396;2023-02-28T08:03:19;8.93;;;6.05;;
23159;SDS011;11748;50.844;4.396;2023-02-28T08:05:46;10.38;;;5.82;;
23159;SDS011;11748;50.844;4.396;2023-02-28T08:08:13;9.40;;;6.15;;
23159;SDS011;11748;50.844;4.396;2023-02-28T08:10:39;7.30;;;5.80;;
23159;SDS011;11748;50.844;4.396;2023-02-28T08:13:06;8.93;;;6.32;;
23159;SDS011;11748;50.844;4.396;2023-02-28T08:15:31;10.73;;;6.15;;
23159;SDS011;11748;50.844;4.396;2023-02-28T08:17:57;10.30;;;5.47;;
23159;SDS011;11748;50.844;4.396;2023-02-28T08:20:24;8.43;;;5.70;;
23159;SDS011;11748;50.844;4.396;2023-02-28T08:22:51;6.43;;;5.40;;
23159;SDS011;11748;50.844;4.396;2023-02-28T08:25:16;6.07;;;4.97;;
23159;SDS011;11748;50.844;4.396;2023-02-28T08:27:43;7.95;;;5.25;;
23159;SDS011;11748;50.844;4.396;2023-02-28T08:30:13;6.85;;;4.85;;
23159;SDS011;11748;50.844;4.396;2023-02-28T08:32:39;6.93;;;4.82;;
23159;SDS011;11748;50.844;4.396;2023-02-28T08:35:06;7.65;;;5.20;;
23159;SDS011;11748;50.844;4.396;2023-02-28T08:37:34;8.60;;;5.32;;
23159;SDS011;11748;50.844;4.396;2023-02-28T08:39:59;6.88;;;4.75;;
23159;SDS011;11748;50.844;4.396;2023-02-28T08:42:25;4.97;;;4.22;;
23159;SDS011;11748;50.844;4.396;2023-02-28T08:44:51;7.10;;;4.70;;
23159;SDS011;11748;50.844;4.396;2023-02-28T08:47:17;11.73;;;4.93;;
23159;SDS011;11748;50.844;4.396;2023-02-28T08:49:43;8.82;;;5.20;;
23159;SDS011;11748;50.844;4.396;2023-02-28T08:52:08;5.80;;;3.97;;
23159;SDS011;11748;50.844;4.396;2023-02-28T08:54:34;8.65;;;4.22;;
23159;SDS011;11748;50.844;4.396;2023-02-28T08:57:00;7.63;;;4.80;;
23159;SDS011;11748;50.844;4.396;2023-02-28T08:59:27;9.63;;;4.40;;
23159;SDS011;11748;50.844;4.396;2023-02-28T09:01:53;5.82;;;3.90;;
23159;SDS011;11748;50.844;4.396;2023-02-28T09:04:18;6.85;;;4.70;;
23159;SDS011;11748;50.844;4.396;2023-02-28T09:06:44;6.03;;;4.75;;
23159;SDS011;11748;50.844;4.396;2023-02-28T09:09:10;6.35;;;4.10;;
23159;SDS011;11748;50.844;4.396;2023-02-28T09:11:36;6.35;;;4.28;;
23159;SDS011;11748;50.844;4.396;2023-02-28T09:14:02;6.25;;;3.80;;
23159;SDS011;11748;50.844;4.396;2023-02-28T09:16:30;6.25;;;4.20;;
23159;SDS011;11748;50.844;4.396;2023-02-28T09:18:56;5.75;;;3.65;;
23159;SDS011;11748;50.844;4.396;2023-02-28T09:21:22;6.70;;;3.97;;
23159;SDS011;11748;50.844;4.396;2023-02-28T09:23:49;6.80;;;4.55;;
23159;SDS011;11748;50.844;4.396;2023-02-28T09:26:16;7.15;;;4.18;;
23159;SDS011;11748;50.844;4.396;2023-02-28T09:28:44;7.80;;;3.97;;
23159;SDS011;11748;50.844;4.396;2023-02-28T09:31:16;5.53;;;4.15;;
23159;SDS011;11748;50.844;4.396;2023-02-28T09:33:47;7.82;;;2.80;;
23159;SDS011;11748;50.844;4.396;2023-02-28T09:36:16;6.32;;;3.45;;
23159;SDS011;11748;50.844;4.396;2023-02-28T09:38:43;4.13;;;3.38;;
23159;SDS011;11748;50.844;4.396;2023-02-28T09:41:14;6.07;;;3.50;;
23159;SDS011;11748;50.844;4.396;2023-02-28T09:43:46;6.68;;;3.53;;
23159;SDS011;11748;50.844;4.396;2023-02-28T09:51:57;6.68;;;3.60;;
23159;SDS011;11748;50.844;4.396;2023-02-28T09:54:29;6.28;;;3.20;;
23159;SDS011;11748;50.844;4.396;2023-02-28T10:08:18;3.67;;;2.83;;
23159;SDS011;11748;50.844;4.396;2023-02-28T10:11:06;4.18;;;2.28;;
23159;SDS011;11748;50.844;4.396;2023-02-28T10:16:27;3.97;;;2.72;;
23159;SDS011;11748;50.844;4.396;2023-02-28T10:19:11;5.03;;;3.00;;
23159;SDS011;11748;50.844;4.396;2023-02-28T10:21:46;4.72;;;2.67;;
23159;SDS011;11748;50.844;4.396;2023-02-28T10:24:30;4.63;;;2.93;;
23159;SDS011;11748;50.844;4.396;2023-02-28T10:27:01;5.00;;;2.97;;
23159;SDS011;11748;50.844;4.396;2023-02-28T10:29:45;3.25;;;2.28;;
23159;SDS011;11748;50.844;4.396;2023-02-28T10:32:15;3.15;;;2.30;;
23159;SDS011;11748;50.844;4.396;2023-02-28T10:34:44;4.30;;;2.33;;
23159;SDS011;11748;50.844;4.396;2023-02-28T10:37:12;5.18;;;2.38;;
23159;SDS011;11748;50.844;4.396;2023-02-28T10:39:40;2.65;;;1.88;;
23159;SDS011;11748;50.844;4.396;2023-02-28T10:42:29;3.22;;;1.83;;
23159;SDS011;11748;50.844;4.396;2023-02-28T10:45:09;4.18;;;2.13;;
23159;SDS011;11748;50.844;4.396;2023-02-28T10:47:57;2.17;;;1.88;;
23159;SDS011;11748;50.844;4.396;2023-02-28T10:50:30;4.00;;;2.30;;
23159;SDS011;11748;50.844;4.396;2023-02-28T10:53:28;3.20;;;2.20;;
23159;SDS011;11748;50.844;4.396;2023-02-28T10:56:24;3.67;;;1.88;;
23159;SDS011;11748;50.844;4.396;2023-02-28T11:04:00;2.63;;;1.90;;
23159;SDS011;11748;50.844;4.396;2023-02-28T11:06:28;3.67;;;2.28;;
23159;SDS011;11748;50.844;4.396;2023-02-28T11:09:06;3.75;;;2.10;;
23159;SDS011;11748;50.844;4.396;2023-02-28T11:11:45;3.35;;;1.98;;
23159;SDS011;11748;50.844;4.396;2023-02-28T11:14:17;2.33;;;2.13;;
23159;SDS011;11748;50.844;4.396;2023-02-28T11:16:54;3.47;;;2.40;;
23159;SDS011;11748;50.844;4.396;2023-02-28T11:19:39;3.85;;;2.78;;
23159;SDS011;11748;50.844;4.396;2023-02-28T11:22:09;3.38;;;2.40;;
23159;SDS011;11748;50.844;4.396;2023-02-28T11:24:37;3.35;;;2.10;;
23159;SDS011;11748;50.844;4.396;2023-02-28T11:27:24;2.95;;;2.45;;
23159;SDS011;11748;50.844;4.396;2023-02-28T11:29:51;3.83;;;2.25;;
23159;SDS011;11748;50.844;4.396;2023-02-28T11:32:21;3.28;;;2.22;;
23159;SDS011;11748;50.844;4.396;2023-02-28T11:34:59;2.58;;;2.30;;
23159;SDS011;11748;50.844;4.396;2023-02-28T11:37:39;3.38;;;2.13;;
23159;SDS011;11748;50.844;4.396;2023-02-28T11:40:28;3.13;;;2.17;;
23159;SDS011;11748;50.844;4.396;2023-02-28T11:48:32;6.43;;;2.53;;
23159;SDS011;11748;50.844;4.396;2023-02-28T11:51:42;3.63;;;2.38;;
23159;SDS011;11748;50.844;4.396;2023-02-28T12:02:24;4.30;;;2.47;;
23159;SDS011;11748;50.844;4.396;2023-02-28T12:07:47;3.53;;;2.53;;
23159;SDS011;11748;50.844;4.396;2023-02-28T12:10:22;3.78;;;2.55;;
23159;SDS011;11748;50.844;4.396;2023-02-28T12:13:01;2.40;;;2.10;;
23159;SDS011;11748;50.844;4.396;2023-02-28T12:26:51;5.35;;;2.22;;
23159;SDS011;11748;50.844;4.396;2023-02-28T12:29:21;4.95;;;2.45;;
23159;SDS011;11748;50.844;4.396;2023-02-28T12:32:38;3.38;;;2.40;;
23159;SDS011;11748;50.844;4.396;2023-02-28T12:34:41;4.45;;;2.50;;
23159;SDS011;11748;50.844;4.396;2023-02-28T12:37:14;4.72;;;2.88;;
23159;SDS011;11748;50.844;4.396;2023-02-28T12:39:48;2.92;;;2.33;;
23159;SDS011;11748;50.844;4.396;2023-02-28T12:43:02;3.88;;;1.90;;
23159;SDS011;11748;50.844;4.396;2023-02-28T12:45:21;3.60;;;2.20;;
23159;SDS011;11748;50.844;4.396;2023-02-28T12:47:55;3.08;;;2.30;;
23159;SDS011;11748;50.844;4.396;2023-02-28T12:50:25;4.93;;;3.10;;
23159;SDS011;11748;50.844;4.396;2023-02-28T12:52:59;4.05;;;2.35;;
23159;SDS011;11748;50.844;4.396;2023-02-28T12:55:41;3.28;;;2.35;;
23159;SDS011;11748;50.844;4.396;2023-02-28T12:58:26;3.55;;;2.38;;
23159;SDS011;11748;50.844;4.396;2023-02-28T13:09:29;3.97;;;2.20;;
23159;SDS011;11748;50.844;4.396;2023-02-28T13:11:55;3.13;;;2.25;;
23159;SDS011;11748;50.844;4.396;2023-02-28T13:19:35;3.30;;;2.20;;
23159;SDS011;11748;50.844;4.396;2023-02-28T13:22:03;3.63;;;2.40;;
23159;SDS011;11748;50.844;4.396;2023-02-28T13:29:34;2.83;;;2.38;;
23159;SDS011;11748;50.844;4.396;2023-02-28T13:34:36;2.95;;;2.17;;
23159;SDS011;11748;50.844;4.396;2023-02-28T13:39:54;7.35;;;3.00;;
23159;SDS011;11748;50.844;4.396;2023-02-28T13:53:19;3.85;;;2.33;;
23159;SDS011;11748;50.844;4.396;2023-02-28T13:56:19;3.30;;;2.40;;
23159;SDS011;11748;50.844;4.396;2023-02-28T14:05:13;3.53;;;2.20;;
23159;SDS011;11748;50.844;4.396;2023-02-28T14:07:48;5.63;;;2.20;;
23159;SDS011;11748;50.844;4.396;2023-02-28T14:10:28;3.22;;;2.10;;
23159;SDS011;11748;50.844;4.396;2023-02-28T14:13:01;4.03;;;2.35;;
23159;SDS011;11748;50.844;4.396;2023-02-28T14:18:04;2.60;;;2.10;;
23159;SDS011;11748;50.844;4.396;2023-02-28T14:20:39;5.18;;;2.55;;
23159;SDS011;11748;50.844;4.396;2023-02-28T14:23:07;7.70;;;2.42;;
23159;SDS011;11748;50.844;4.396;2023-02-28T14:31:18;3.40;;;2.40;;
23159;SDS011;11748;50.844;4.396;2023-02-28T14:36:45;2.60;;;2.40;;
23159;SDS011;11748;50.844;4.396;2023-02-28T14:39:13;2.72;;;2.45;;
23159;SDS011;11748;50.844;4.396;2023-02-28T14:41:40;5.47;;;2.45;;
23159;SDS011;11748;50.844;4.396;2023-02-28T14:44:20;4.72;;;2.10;;
23159;SDS011;11748;50.844;4.396;2023-02-28T14:46:54;4.60;;;2.40;;
23159;SDS011;11748;50.844;4.396;2023-02-28T14:49:28;4.57;;;2.60;;
23159;SDS011;11748;50.844;4.396;2023-02-28T14:52:14;6.03;;;2.60;;
23159;SDS011;11748;50.844;4.396;2023-02-28T14:54:44;9.63;;;3.85;;
23159;SDS011;11748;50.844;4.396;2023-02-28T14:57:24;3.17;;;2.83;;
23159;SDS011;11748;50.844;4.396;2023-02-28T15:02:24;7.68;;;3.25;;
23159;SDS011;11748;50.844;4.396;2023-02-28T15:07:35;6.97;;;3.58;;
23159;SDS011;11748;50.844;4.396;2023-02-28T15:10:18;5.05;;;2.83;;
23159;SDS011;11748;50.844;4.396;2023-02-28T15:12:49;4.63;;;3.30;;
23159;SDS011;11748;50.844;4.396;2023-02-28T15:15:27;3.67;;;3.03;;
23159;SDS011;11748;50.844;4.396;2023-02-28T15:17:58;5.13;;;3.22;;
23159;SDS011;11748;50.844;4.396;2023-02-28T15:20:27;5.28;;;3.20;;
23159;SDS011;11748;50.844;4.396;2023-02-28T15:22:55;3.28;;;2.80;;
23159;SDS011;11748;50.844;4.396;2023-02-28T15:25:22;4.55;;;3.25;;
23159;SDS011;11748;50.844;4.396;2023-02-28T15:27:49;5.88;;;3.25;;
23159;SDS011;11748;50.844;4.396;2023-02-28T15:30:18;3.25;;;2.90;;
23159;SDS011;11748;50.844;4.396;2023-02-28T15:33:17;5.63;;;3.28;;
23159;SDS011;11748;50.844;4.396;2023-02-28T15:35:45;4.13;;;3.15;;
23159;SDS011;11748;50.844;4.396;2023-02-28T15:38:17;5.95;;;3.15;;
23159;SDS011;11748;50.844;4.396;2023-02-28T15:40:52;4.15;;;3.45;;
23159;SDS011;11748;50.844;4.396;2023-02-28T15:43:26;4.47;;;3.03;;
23159;SDS011;11748;50.844;4.396;2023-02-28T15:48:36;4.32;;;3.00;;
23159;SDS011;11748;50.844;4.396;2023-02-28T15:51:19;4.32;;;3.03;;
23159;SDS011;11748;50.844;4.396;2023-02-28T15:54:28;5.57;;;3.00;;
23159;SDS011;11748;50.844;4.396;2023-02-28T15:56:43;5.53;;;3.05;;
23159;SDS011;11748;50.844;4.396;2023-02-28T15:59:18;5.60;;;3.00;;
23159;SDS011;11748;50.844;4.396;2023-02-28T16:01:46;4.15;;;2.47;;
23159;SDS011;11748;50.844;4.396;2023-02-28T16:04:26;3.60;;;2.80;;
23159;SDS011;11748;50.844;4.396;2023-02-28T16:09:24;6.07;;;3.28;;
23159;SDS011;11748;50.844;4.396;2023-02-28T16:11:53;3.95;;;3.00;;
23159;SDS011;11748;50.844;4.396;2023-02-28T16:14:22;4.13;;;3.20;;
23159;SDS011;11748;50.844;4.396;2023-02-28T16:16:52;4.93;;;2.70;;
23159;SDS011;11748;50.844;4.396;2023-02-28T16:19:19;5.75;;;3.30;;
23159;SDS011;11748;50.844;4.396;2023-02-28T16:21:46;6.15;;;3.40;;
23159;SDS011;11748;50.844;4.396;2023-02-28T16:24:12;5.10;;;2.90;;
23159;SDS011;11748;50.844;4.396;2023-02-28T16:26:39;7.30;;;3.28;;
23159;SDS011;11748;50.844;4.396;2023-02-28T16:29:06;10.88;;;3.22;;
23159;SDS011;11748;50.844;4.396;2023-02-28T16:31:35;6.55;;;3.20;;
23159;SDS011;11748;50.844;4.396;2023-02-28T16:34:02;5.25;;;2.92;;
23159;SDS011;11748;50.844;4.396;2023-02-28T16:36:29;3.50;;;3.10;;
23159;SDS011;11748;50.844;4.396;2023-02-28T16:38:55;4.68;;;2.92;;
23159;SDS011;11748;50.844;4.396;2023-02-28T16:41:22;4.13;;;3.05;;
23159;SDS011;11748;50.844;4.396;2023-02-28T16:43:51;6.18;;;2.97;;
23159;SDS011;11748;50.844;4.396;2023-02-28T16:46:19;6.05;;;3.13;;
23159;SDS011;11748;50.844;4.396;2023-02-28T16:48:46;6.82;;;3.33;;
23159;SDS011;11748;50.844;4.396;2023-02-28T16:51:16;5.53;;;3.00;;
23159;SDS011;11748;50.844;4.396;2023-02-28T16:53:43;5.80;;;3.10;;
23159;SDS011;11748;50.844;4.396;2023-02-28T16:56:14;4.10;;;3.15;;
23159;SDS011;11748;50.844;4.396;2023-02-28T16:58:42;5.90;;;2.80;;
23159;SDS011;11748;50.844;4.396;2023-02-28T17:01:07;4.53;;;3.00;;
23159;SDS011;11748;50.844;4.396;2023-02-28T17:03:33;5.82;;;2.90;;
23159;SDS011;11748;50.844;4.396;2023-02-28T17:06:01;4.43;;;2.92;;
23159;SDS011;11748;50.844;4.396;2023-02-28T17:08:27;6.10;;;2.95;;
23159;SDS011;11748;50.844;4.396;2023-02-28T17:10:54;9.20;;;3.50;;
23159;SDS011;11748;50.844;4.396;2023-02-28T17:13:20;4.32;;;3.15;;
23159;SDS011;11748;50.844;4.396;2023-02-28T17:15:46;5.85;;;3.28;;
23159;SDS011;11748;50.844;4.396;2023-02-28T17:18:17;6.53;;;3.58;;
23159;SDS011;11748;50.844;4.396;2023-02-28T17:20:45;3.30;;;3.00;;
23159;SDS011;11748;50.844;4.396;2023-02-28T17:23:11;4.65;;;2.92;;
23159;SDS011;11748;50.844;4.396;2023-02-28T17:25:37;4.32;;;2.88;;
23159;SDS011;11748;50.844;4.396;2023-02-28T17:28:03;6.93;;;2.85;;
23159;SDS011;11748;50.844;4.396;2023-02-28T17:30:31;5.43;;;3.08;;
23159;SDS011;11748;50.844;4.396;2023-02-28T17:32:59;3.28;;;2.70;;
23159;SDS011;11748;50.844;4.396;2023-02-28T17:35:25;5.78;;;3.38;;
23159;SDS011;11748;50.844;4.396;2023-02-28T17:37:52;5.03;;;2.83;;
23159;SDS011;11748;50.844;4.396;2023-02-28T17:40:19;3.15;;;2.85;;
23159;SDS011;11748;50.844;4.396;2023-02-28T17:42:47;3.85;;;3.38;;